Time;durP1;ratioP1;P1;durP2;ratioP2;P2;SDS_P1;SDS_P2;PMS_P1;PMS_P2;Temp;Humidity;BMP_temperature;BMP_pressure;BME280_temperature;BME280_humidity;BME280_pressure;Samples;Min_cycle;Max_cycle;Signal;HPM_P1;HPM_P2
2021/12/31 00:00:07;;;;;;;1.90;0.90;;;13.80;99.90;;;;;;5055951;28;20188;-73
2021/12/31 00:02:33;;;;;;;1.37;1.00;;;13.80;99.90;;;;;;5059186;28;20290;-74
2021/12/31 00:04:58;;;;;;;0.20;0.20;;;13.80;99.90;;;;;;5053504;28;20768;-74
2021/12/31 00:07:24;;;;;;;0.20;0.20;;;13.90;99.90;;;;;;5057941;28;20188;-74
2021/12/31 00:09:49;;;;;;;0.10;0.10;;;13.80;99.90;;;;;;5062974;28;20196;-74
2021/12/31 00:12:15;;;;;;;14.10;1.63;;;13.90;99.90;;;;;;5053901;28;20490;-74
2021/12/31 00:14:40;;;;;;;0.47;0.47;;;13.80;99.90;;;;;;5053434;28;20173;-74
2021/12/31 00:17:07;;;;;;;0.73;0.73;;;13.90;99.90;;;;;;5053542;28;20243;-73
2021/12/31 00:19:38;;;;;;;0.40;0.40;;;13.80;99.90;;;;;;5056921;28;20177;-73
2021/12/31 00:22:21;;;;;;;7.93;2.00;;;13.80;99.90;;;;;;5055387;28;20520;-73
2021/12/31 00:24:46;;;;;;;0.10;0.10;;;13.80;99.90;;;;;;5056549;28;20180;-73
2021/12/31 00:27:12;;;;;;;0.17;0.17;;;13.80;99.90;;;;;;5053788;28;20501;-73
2021/12/31 00:29:39;;;;;;;0.33;0.33;;;13.80;99.90;;;;;;5064964;28;20556;-74
2021/12/31 00:32:04;;;;;;;0.30;0.30;;;13.90;99.90;;;;;;5054878;28;20177;-73
2021/12/31 00:34:30;;;;;;;0.20;0.20;;;13.90;99.90;;;;;;5073204;28;20173;-73
2021/12/31 00:36:55;;;;;;;0.20;0.20;;;13.90;99.90;;;;;;5072546;28;20173;-73
2021/12/31 00:39:21;;;;;;;0.10;0.10;;;13.90;99.90;;;;;;5073039;28;20173;-74
2021/12/31 00:41:47;;;;;;;0.67;0.40;;;13.90;99.90;;;;;;5073062;28;20659;-73
2021/12/31 00:44:13;;;;;;;28.53;0.87;;;13.80;99.90;;;;;;5069766;28;20647;-74
2021/12/31 00:46:39;;;;;;;0.50;0.50;;;13.80;99.90;;;;;;5054720;28;20180;-74
2021/12/31 00:49:06;;;;;;;0.20;0.20;;;13.90;99.90;;;;;;5052864;28;20172;-74
2021/12/31 00:51:32;;;;;;;0.07;0.07;;;13.80;99.90;;;;;;5058725;28;20656;-74
2021/12/31 00:53:58;;;;;;;0.70;0.70;;;13.80;99.90;;;;;;5052441;28;20208;-74
2021/12/31 00:56:24;;;;;;;0.73;0.53;;;13.90;99.90;;;;;;5052541;28;20173;-73
2021/12/31 00:58:49;;;;;;;1.07;0.70;;;13.90;99.90;;;;;;5051749;28;20667;-74
2021/12/31 01:01:20;;;;;;;0.97;0.83;;;13.80;99.90;;;;;;5051397;28;20173;-74
2021/12/31 01:03:47;;;;;;;0.67;0.67;;;13.80;99.90;;;;;;5052382;28;20209;-74
2021/12/31 01:06:13;;;;;;;0.10;0.10;;;13.80;99.90;;;;;;5050921;28;20181;-74
2021/12/31 01:08:38;;;;;;;0.10;0.10;;;13.80;99.90;;;;;;5052392;28;20208;-74
2021/12/31 01:11:04;;;;;;;0.50;0.50;;;13.80;99.90;;;;;;5050930;28;20739;-74
2021/12/31 01:13:56;;;;;;;0.20;0.13;;;13.80;99.90;;;;;;5052190;28;20202;-73
2021/12/31 01:16:18;;;;;;;0.10;0.10;;;13.80;99.90;;;;;;5051334;28;20874;-74
2021/12/31 01:21:35;;;;;;;0.10;0.10;;;13.70;99.90;;;;;;5028127;28;20198;-74
2021/12/31 01:24:02;;;;;;;0.20;0.20;;;13.80;99.90;;;;;;5071928;28;20200;-74
2021/12/31 01:26:27;;;;;;;0.30;0.30;;;13.80;99.90;;;;;;5058486;28;20169;-73
2021/12/31 01:28:53;;;;;;;0.67;0.47;;;13.80;99.90;;;;;;5058407;28;20179;-74
2021/12/31 01:31:21;;;;;;;0.10;0.10;;;13.70;99.90;;;;;;5059340;28;20254;-74
2021/12/31 01:33:46;;;;;;;0.73;0.73;;;13.70;99.90;;;;;;5054624;28;20195;-73
2021/12/31 01:36:12;;;;;;;0.20;0.20;;;13.70;99.90;;;;;;5062979;28;20183;-73
2021/12/31 01:38:38;;;;;;;0.40;0.40;;;13.70;99.90;;;;;;5054356;28;20190;-73
2021/12/31 01:41:04;;;;;;;0.03;0.03;;;13.70;99.90;;;;;;5063649;28;20215;-73
2021/12/31 01:43:30;;;;;;;0.40;0.40;;;13.70;99.90;;;;;;5060207;28;20211;-73
2021/12/31 01:45:59;;;;;;;0.37;0.10;;;13.70;99.90;;;;;;5054041;28;20177;-73
2021/12/31 01:50:52;;;;;;;13.80;0.77;;;13.80;99.90;;;;;;5071527;28;20551;-73
2021/12/31 01:53:21;;;;;;;0.20;0.20;;;13.80;99.90;;;;;;5057931;28;20209;-74
2021/12/31 01:55:49;;;;;;;0.10;0.10;;;13.80;99.90;;;;;;5060267;28;20177;-71
2021/12/31 01:58:18;;;;;;;3.90;1.37;;;13.80;99.90;;;;;;5059444;28;20280;-74
2021/12/31 02:00:44;;;;;;;0.43;0.43;;;13.80;99.90;;;;;;5041862;28;20266;-73
2021/12/31 02:03:11;;;;;;;0.27;0.27;;;13.70;99.90;;;;;;5050160;28;20216;-73
2021/12/31 02:05:38;;;;;;;0.13;0.13;;;13.60;99.90;;;;;;5061008;28;20184;-72
2021/12/31 02:08:04;;;;;;;0.30;0.30;;;13.60;99.90;;;;;;5057830;28;20211;-73
2021/12/31 02:10:30;;;;;;;0.10;0.10;;;13.60;99.90;;;;;;5060149;28;20262;-73
2021/12/31 02:12:57;;;;;;;0.10;0.10;;;13.60;99.90;;;;;;5054758;28;20189;-73
2021/12/31 02:15:22;;;;;;;0.10;0.10;;;13.50;99.90;;;;;;5062871;28;20260;-73
2021/12/31 02:17:49;;;;;;;0.77;0.20;;;13.50;99.90;;;;;;5053602;28;20252;-73
2021/12/31 02:20:19;;;;;;;0.63;0.63;;;13.50;99.90;;;;;;5049267;28;20676;-73
2021/12/31 02:23:05;;;;;;;0.10;0.10;;;13.50;99.90;;;;;;5059962;28;20249;-73
2021/12/31 02:25:31;;;;;;;3.33;1.27;;;13.40;99.90;;;;;;5057216;28;20173;-72
2021/12/31 02:27:57;;;;;;;0.20;0.20;;;13.50;99.90;;;;;;5052257;28;20210;-74
2021/12/31 02:30:23;;;;;;;1.07;0.70;;;13.40;99.90;;;;;;5057832;28;20224;-74
2021/12/31 02:32:48;;;;;;;2.13;0.63;;;13.40;99.90;;;;;;5051112;28;20193;-74
2021/12/31 02:35:14;;;;;;;0.33;0.20;;;13.30;99.90;;;;;;5055583;28;20221;-74
2021/12/31 02:37:39;;;;;;;0.30;0.30;;;13.30;99.90;;;;;;5057646;28;20176;-73
2021/12/31 02:40:08;;;;;;;12.07;1.93;;;13.30;99.90;;;;;;5058617;28;20585;-73
2021/12/31 02:42:34;;;;;;;0.07;0.07;;;13.30;99.90;;;;;;5061419;28;20192;-74
2021/12/31 02:45:00;;;;;;;0.20;0.20;;;13.30;99.90;;;;;;5049365;28;20180;-74
2021/12/31 02:47:26;;;;;;;0.07;0.07;;;13.30;99.90;;;;;;5057950;28;20176;-74
2021/12/31 02:49:52;;;;;;;0.40;0.40;;;13.30;99.90;;;;;;5058515;28;20197;-74
2021/12/31 02:52:18;;;;;;;0.20;0.20;;;13.30;99.90;;;;;;5056028;28;20173;-73
2021/12/31 02:54:48;;;;;;;1.13;0.50;;;13.30;99.90;;;;;;5061500;28;20185;-74
2021/12/31 02:57:15;;;;;;;0.13;0.13;;;13.30;99.90;;;;;;5063294;28;20263;-74
2021/12/31 02:59:41;;;;;;;0.10;0.10;;;13.30;99.90;;;;;;5051234;28;20169;-73
2021/12/31 03:02:07;;;;;;;1.60;1.07;;;13.20;99.90;;;;;;5054849;28;20661;-74
2021/12/31 03:04:38;;;;;;;0.47;0.20;;;13.30;99.90;;;;;;5055537;28;20181;-74
2021/12/31 03:07:05;;;;;;;0.03;0.03;;;13.30;99.90;;;;;;5055380;28;20268;-74
2021/12/31 03:09:32;;;;;;;0.20;0.20;;;13.30;99.90;;;;;;5058214;28;20254;-73
2021/12/31 03:12:00;;;;;;;0.27;0.27;;;13.20;99.90;;;;;;5056520;28;20169;-74
2021/12/31 03:14:28;;;;;;;0.10;0.10;;;13.30;99.90;;;;;;5053671;28;20196;-74
2021/12/31 03:16:53;;;;;;;0.17;0.17;;;13.20;99.90;;;;;;5057383;28;20182;-74
2021/12/31 03:19:20;;;;;;;0.53;0.53;;;13.20;99.90;;;;;;5055580;28;20180;-74
2021/12/31 03:21:46;;;;;;;1.20;1.07;;;13.20;99.90;;;;;;5057693;28;20165;-71
2021/12/31 03:24:12;;;;;;;0.00;0.00;;;13.30;99.90;;;;;;5058529;28;20684;-73
2021/12/31 03:26:38;;;;;;;6.60;0.77;;;13.20;99.90;;;;;;5063211;28;20243;-71
2021/12/31 03:29:04;;;;;;;0.10;0.10;;;13.20;99.90;;;;;;5053119;28;20706;-73
2021/12/31 03:31:30;;;;;;;2.43;0.40;;;13.20;99.90;;;;;;5057116;28;20229;-73
2021/12/31 03:33:55;;;;;;;0.10;0.10;;;13.20;99.90;;;;;;5061216;28;20220;-73
2021/12/31 03:36:21;;;;;;;0.63;0.63;;;13.20;99.90;;;;;;5057705;28;20173;-73
2021/12/31 03:38:46;;;;;;;0.10;0.10;;;13.20;99.90;;;;;;5059070;28;20168;-73
2021/12/31 03:41:12;;;;;;;0.40;0.40;;;13.20;99.90;;;;;;5067465;28;20176;-73
2021/12/31 03:43:38;;;;;;;0.40;0.30;;;13.30;99.90;;;;;;5057812;28;20201;-73
2021/12/31 03:46:03;;;;;;;0.20;0.20;;;13.30;99.90;;;;;;5056205;28;20184;-73
2021/12/31 03:48:29;;;;;;;0.10;0.10;;;13.30;99.90;;;;;;5056344;28;20201;-73
2021/12/31 03:50:55;;;;;;;0.07;0.07;;;13.20;99.90;;;;;;5065272;28;22413;-73
2021/12/31 03:53:20;;;;;;;0.07;0.07;;;13.30;99.90;;;;;;5058169;28;20292;-73
2021/12/31 03:55:46;;;;;;;0.20;0.20;;;13.30;99.90;;;;;;5062172;28;20682;-72
2021/12/31 03:58:12;;;;;;;0.10;0.10;;;13.30;99.90;;;;;;5060861;28;20177;-73
2021/12/31 04:00:38;;;;;;;0.43;0.20;;;13.30;99.90;;;;;;5060273;28;20176;-73
2021/12/31 04:03:11;;;;;;;0.10;0.10;;;13.30;99.90;;;;;;5056432;28;20313;-74
2021/12/31 04:05:40;;;;;;;0.10;0.10;;;13.30;99.90;;;;;;5062746;28;20177;-72
2021/12/31 04:08:06;;;;;;;0.40;0.40;;;13.30;99.90;;;;;;5060941;28;20267;-73
2021/12/31 04:10:31;;;;;;;1.43;0.93;;;13.30;99.90;;;;;;5071204;28;20770;-73
2021/12/31 04:12:57;;;;;;;0.20;0.20;;;13.20;99.90;;;;;;5055877;28;20189;-73
2021/12/31 04:15:23;;;;;;;2.83;0.40;;;13.10;99.90;;;;;;5056762;28;20180;-73
2021/12/31 04:17:48;;;;;;;4.27;1.73;;;13.10;99.90;;;;;;5054613;28;20173;-73
2021/12/31 04:20:32;;;;;;;0.10;0.10;;;13.10;99.90;;;;;;5060373;28;20638;-73
2021/12/31 04:22:59;;;;;;;0.10;0.10;;;13.00;99.90;;;;;;5060418;28;20216;-73
2021/12/31 04:25:24;;;;;;;0.30;0.30;;;13.00;99.90;;;;;;5058084;28;20181;-73
2021/12/31 04:27:51;;;;;;;0.20;0.20;;;12.90;99.90;;;;;;5053948;28;20738;-73
2021/12/31 04:30:16;;;;;;;0.20;0.20;;;12.80;99.90;;;;;;5065102;28;20643;-73
2021/12/31 04:32:43;;;;;;;0.63;0.63;;;12.80;99.90;;;;;;5054061;28;20215;-72
2021/12/31 04:35:11;;;;;;;0.00;0.00;;;12.80;99.90;;;;;;5057916;28;20179;-73
2021/12/31 04:37:38;;;;;;;24.47;1.23;;;12.80;99.90;;;;;;5059551;28;22321;-72
2021/12/31 04:40:05;;;;;;;0.20;0.20;;;12.80;99.90;;;;;;5060827;28;20397;-73
2021/12/31 04:42:30;;;;;;;0.30;0.30;;;12.90;99.90;;;;;;5062748;28;20224;-73
2021/12/31 04:44:57;;;;;;;0.20;0.20;;;12.90;99.90;;;;;;5061793;28;20207;-73
2021/12/31 04:47:22;;;;;;;0.23;0.23;;;12.90;99.90;;;;;;5052455;28;20205;-73
2021/12/31 04:49:48;;;;;;;0.10;0.10;;;12.90;99.90;;;;;;5059164;28;20359;-73
2021/12/31 04:52:13;;;;;;;3.03;0.90;;;12.90;99.90;;;;;;5054227;28;20191;-73
2021/12/31 04:54:39;;;;;;;2.53;0.40;;;12.90;99.90;;;;;;5108305;22;20219;-73
2021/12/31 04:57:05;;;;;;;0.07;0.07;;;12.90;99.90;;;;;;5055461;28;20176;-73
2021/12/31 04:59:31;;;;;;;0.57;0.57;;;12.90;99.90;;;;;;5058799;28;20525;-74
2021/12/31 05:01:56;;;;;;;0.23;0.23;;;12.90;99.90;;;;;;5045736;28;20188;-74
2021/12/31 05:04:22;;;;;;;4.13;1.13;;;12.80;99.90;;;;;;5062268;28;20203;-73
2021/12/31 05:06:49;;;;;;;1.00;0.40;;;12.70;99.90;;;;;;5059490;28;20240;-74
2021/12/31 05:09:15;;;;;;;0.10;0.10;;;12.70;99.90;;;;;;5052194;28;20201;-72
2021/12/31 05:11:42;;;;;;;1.13;1.03;;;12.70;99.90;;;;;;5060779;28;20662;-73
2021/12/31 05:14:07;;;;;;;0.10;0.10;;;12.70;99.90;;;;;;5055852;28;20203;-73
2021/12/31 05:16:35;;;;;;;0.30;0.17;;;12.70;99.90;;;;;;5066356;28;20173;-73
2021/12/31 05:19:02;;;;;;;4.00;0.50;;;12.70;99.90;;;;;;5053532;28;20173;-74
2021/12/31 05:21:28;;;;;;;1.83;0.73;;;12.70;99.90;;;;;;5053578;28;20173;-74
2021/12/31 05:23:53;;;;;;;0.13;0.13;;;12.70;99.90;;;;;;5053503;28;20254;-74
2021/12/31 05:26:19;;;;;;;2.23;0.83;;;12.70;99.90;;;;;;5052161;28;20181;-74
2021/12/31 05:28:45;;;;;;;0.10;0.10;;;12.70;99.90;;;;;;5055257;28;20177;-74
2021/12/31 05:31:10;;;;;;;0.37;0.37;;;12.70;99.90;;;;;;5053920;28;20207;-73
2021/12/31 05:33:36;;;;;;;0.13;0.13;;;12.70;99.90;;;;;;5052876;28;20179;-74
2021/12/31 05:36:01;;;;;;;0.63;0.63;;;12.70;99.90;;;;;;5051374;28;20199;-73
2021/12/31 05:38:27;;;;;;;0.40;0.40;;;12.70;99.90;;;;;;5063961;28;20225;-74
2021/12/31 05:40:53;;;;;;;0.10;0.10;;;12.70;99.90;;;;;;5056854;28;20185;-74
2021/12/31 05:43:18;;;;;;;0.47;0.40;;;12.70;99.90;;;;;;5059873;28;20169;-73
2021/12/31 05:45:44;;;;;;;6.23;0.87;;;12.70;99.90;;;;;;5053730;28;20193;-72
2021/12/31 05:48:09;;;;;;;0.20;0.20;;;12.60;99.90;;;;;;5059606;28;20184;-73
2021/12/31 05:50:35;;;;;;;0.83;0.77;;;12.60;99.90;;;;;;5055472;28;20216;-73
2021/12/31 05:53:01;;;;;;;0.00;0.00;;;12.60;99.90;;;;;;5056498;28;20172;-73
2021/12/31 05:55:28;;;;;;;0.57;0.57;;;12.60;99.90;;;;;;5055194;28;20554;-73
2021/12/31 05:57:55;;;;;;;1.03;1.03;;;12.60;99.90;;;;;;5058935;28;20219;-73
2021/12/31 06:00:22;;;;;;;0.53;0.53;;;12.60;99.90;;;;;;5051665;28;20889;-73
2021/12/31 06:02:48;;;;;;;0.50;0.50;;;12.60;99.90;;;;;;5053250;28;20192;-74
2021/12/31 06:05:14;;;;;;;0.10;0.10;;;12.60;99.90;;;;;;5050887;28;20698;-71
2021/12/31 06:07:39;;;;;;;0.20;0.20;;;12.60;99.90;;;;;;5053316;28;20210;-72
2021/12/31 06:10:05;;;;;;;0.97;0.53;;;12.60;99.90;;;;;;5051931;28;20379;-72
2021/12/31 06:12:33;;;;;;;0.40;0.40;;;12.70;99.90;;;;;;5051521;28;20184;-70
2021/12/31 06:15:02;;;;;;;0.10;0.10;;;12.60;99.90;;;;;;5057999;28;20290;-70
2021/12/31 06:17:28;;;;;;;0.20;0.20;;;12.50;99.90;;;;;;5052844;28;20583;-72
2021/12/31 06:19:54;;;;;;;0.23;0.20;;;12.40;99.90;;;;;;5052334;28;20173;-70
2021/12/31 06:22:20;;;;;;;0.20;0.20;;;12.40;99.90;;;;;;5049536;28;20648;-72
2021/12/31 06:24:46;;;;;;;1.30;1.27;;;12.40;99.90;;;;;;5034604;28;20188;-72
2021/12/31 06:27:12;;;;;;;0.10;0.10;;;12.40;99.90;;;;;;5050177;28;20173;-72
2021/12/31 06:29:37;;;;;;;0.40;0.40;;;12.30;99.90;;;;;;5061887;28;20197;-72
2021/12/31 06:32:04;;;;;;;1.37;1.20;;;12.30;99.90;;;;;;5049105;28;20725;-72
2021/12/31 06:34:30;;;;;;;0.70;0.70;;;12.20;99.90;;;;;;5056905;28;20223;-74
2021/12/31 06:36:55;;;;;;;0.50;0.50;;;12.00;99.90;;;;;;5068304;28;20255;-72
2021/12/31 06:39:21;;;;;;;0.40;0.40;;;11.90;99.90;;;;;;5051793;28;20580;-72
2021/12/31 06:41:47;;;;;;;0.30;0.30;;;11.90;99.90;;;;;;5066640;28;20199;-71
2021/12/31 06:44:13;;;;;;;0.73;0.73;;;11.90;99.90;;;;;;5069094;28;20248;-72
2021/12/31 06:46:39;;;;;;;0.93;0.60;;;11.80;99.90;;;;;;5062099;28;20247;-73
2021/12/31 06:49:05;;;;;;;0.13;0.13;;;11.80;99.90;;;;;;5060485;28;20732;-73
2021/12/31 06:51:30;;;;;;;5.83;0.40;;;11.70;99.90;;;;;;5056533;28;20222;-73
2021/12/31 06:53:56;;;;;;;0.00;0.00;;;11.70;99.90;;;;;;5038442;28;20231;-73
2021/12/31 06:56:21;;;;;;;0.37;0.37;;;11.60;99.90;;;;;;5058437;28;20201;-73
2021/12/31 06:58:47;;;;;;;0.30;0.30;;;11.60;99.90;;;;;;5065263;28;20184;-73
2021/12/31 07:01:12;;;;;;;0.00;0.00;;;11.60;99.90;;;;;;5067053;28;20171;-73
2021/12/31 07:03:38;;;;;;;0.40;0.40;;;11.60;99.90;;;;;;5056874;28;20640;-73
2021/12/31 07:06:03;;;;;;;0.43;0.43;;;11.50;99.90;;;;;;5057568;28;20173;-73
2021/12/31 07:08:29;;;;;;;0.13;0.13;;;11.50;99.90;;;;;;5058676;28;20747;-73
2021/12/31 07:10:55;;;;;;;1.07;0.47;;;11.40;99.90;;;;;;5077290;28;20196;-74
2021/12/31 07:13:20;;;;;;;0.30;0.30;;;11.40;99.90;;;;;;5062044;28;20205;-74
2021/12/31 07:15:49;;;;;;;0.20;0.20;;;11.30;99.90;;;;;;5055430;28;20197;-72
2021/12/31 07:18:16;;;;;;;0.40;0.40;;;11.20;99.90;;;;;;5056488;28;20202;-73
2021/12/31 07:20:42;;;;;;;0.20;0.20;;;11.20;99.90;;;;;;5062922;28;20179;-72
2021/12/31 07:23:10;;;;;;;0.00;0.00;;;11.20;99.90;;;;;;5057074;28;20181;-73
2021/12/31 07:25:36;;;;;;;1.17;0.30;;;11.10;99.90;;;;;;5062840;28;20211;-74
2021/12/31 07:28:02;;;;;;;1.90;0.60;;;11.10;99.90;;;;;;5056172;28;20640;-73
2021/12/31 07:30:27;;;;;;;0.63;0.63;;;11.10;99.90;;;;;;5049891;28;20594;-74
2021/12/31 07:32:53;;;;;;;12.27;1.40;;;11.10;99.90;;;;;;5059335;28;20723;-74
2021/12/31 07:35:19;;;;;;;0.63;0.63;;;11.10;99.90;;;;;;5061243;28;20188;-73
2021/12/31 07:37:45;;;;;;;0.53;0.53;;;11.10;99.90;;;;;;5059151;28;20191;-73
2021/12/31 07:40:12;;;;;;;0.20;0.20;;;11.10;99.90;;;;;;5066089;28;20164;-74
2021/12/31 07:42:38;;;;;;;0.57;0.30;;;11.10;99.90;;;;;;5062865;28;20176;-74
2021/12/31 07:45:05;;;;;;;0.10;0.10;;;11.10;99.90;;;;;;5060471;28;20197;-74
2021/12/31 07:47:30;;;;;;;2.97;1.00;;;11.10;99.90;;;;;;5054660;28;20713;-75
2021/12/31 07:49:56;;;;;;;2.43;2.03;;;11.10;99.90;;;;;;5074801;28;20196;-75
2021/12/31 07:52:22;;;;;;;0.53;0.20;;;11.10;99.90;;;;;;5067578;28;20633;-75
2021/12/31 07:54:47;;;;;;;0.10;0.10;;;11.10;99.90;;;;;;5064166;28;20209;-73
2021/12/31 07:57:13;;;;;;;0.97;0.67;;;11.10;99.90;;;;;;5054525;28;20172;-76
2021/12/31 07:59:38;;;;;;;0.00;0.00;;;11.20;99.90;;;;;;5054376;28;20177;-76
2021/12/31 08:02:04;;;;;;;0.37;0.10;;;11.20;99.90;;;;;;5055199;28;20186;-75
2021/12/31 08:04:30;;;;;;;0.47;0.33;;;11.30;99.90;;;;;;5063043;28;20280;-73
2021/12/31 08:06:57;;;;;;;0.10;0.10;;;11.30;99.90;;;;;;5057795;28;20306;-73
2021/12/31 08:09:22;;;;;;;0.57;0.57;;;11.30;99.90;;;;;;5056400;28;20270;-74
2021/12/31 08:11:48;;;;;;;0.40;0.40;;;11.30;99.90;;;;;;5054328;28;20216;-72
2021/12/31 08:14:13;;;;;;;0.00;0.00;;;11.40;99.90;;;;;;5054354;28;20591;-73
2021/12/31 08:16:39;;;;;;;0.33;0.33;;;11.40;99.90;;;;;;5059631;28;20182;-74
2021/12/31 08:19:06;;;;;;;0.33;0.33;;;11.40;99.90;;;;;;5060694;28;20271;-74
2021/12/31 08:21:32;;;;;;;0.10;0.10;;;11.50;99.90;;;;;;5052703;28;20184;-74
2021/12/31 08:23:58;;;;;;;0.10;0.10;;;11.50;99.90;;;;;;5052593;28;20197;-73
2021/12/31 08:26:23;;;;;;;2.03;1.30;;;11.60;99.90;;;;;;5058587;28;20185;-73
2021/12/31 08:28:49;;;;;;;0.20;0.20;;;11.60;99.90;;;;;;5063525;28;20175;-74
2021/12/31 08:31:15;;;;;;;0.77;0.60;;;11.60;99.90;;;;;;5055305;28;20290;-75
2021/12/31 08:33:40;;;;;;;0.20;0.20;;;11.70;99.90;;;;;;5055379;28;20170;-75
2021/12/31 08:36:07;;;;;;;0.00;0.00;;;11.70;99.90;;;;;;5053444;28;20235;-75
2021/12/31 08:38:33;;;;;;;0.50;0.50;;;11.70;99.90;;;;;;5052567;28;20173;-76
2021/12/31 08:41:01;;;;;;;0.60;0.60;;;11.70;99.90;;;;;;5056458;28;20184;-75
2021/12/31 08:43:26;;;;;;;0.20;0.20;;;11.70;99.90;;;;;;5058049;28;20200;-75
2021/12/31 08:45:52;;;;;;;0.77;0.77;;;11.70;99.90;;;;;;5061524;28;20202;-77
2021/12/31 08:48:18;;;;;;;0.63;0.60;;;11.70;99.90;;;;;;5052625;28;20242;-74
2021/12/31 08:50:43;;;;;;;0.20;0.20;;;11.70;99.90;;;;;;5053530;28;20200;-73
2021/12/31 08:53:09;;;;;;;0.23;0.23;;;11.70;99.90;;;;;;5059539;28;20173;-74
2021/12/31 08:55:34;;;;;;;0.33;0.33;;;11.70;99.90;;;;;;5053514;28;20351;-73
2021/12/31 08:58:00;;;;;;;0.17;0.17;;;11.70;99.90;;;;;;5059847;28;20182;-73
2021/12/31 09:00:26;;;;;;;0.20;0.20;;;11.70;99.90;;;;;;5062789;28;20181;-73
2021/12/31 09:02:52;;;;;;;0.40;0.40;;;11.70;99.90;;;;;;5053311;28;20177;-73
2021/12/31 09:05:18;;;;;;;0.20;0.20;;;11.60;99.90;;;;;;5052499;28;20207;-73
2021/12/31 09:07:44;;;;;;;0.10;0.10;;;11.60;99.90;;;;;;5059359;28;20427;-73
2021/12/31 09:10:09;;;;;;;0.10;0.10;;;11.70;99.90;;;;;;5062639;28;20195;-73
2021/12/31 09:12:36;;;;;;;1.03;0.60;;;11.70;99.90;;;;;;5056518;28;20263;-74
2021/12/31 09:15:03;;;;;;;1.03;0.30;;;11.70;99.90;;;;;;5052120;28;20662;-72
2021/12/31 09:17:28;;;;;;;0.43;0.40;;;11.70;99.90;;;;;;5045853;28;20262;-72
2021/12/31 09:19:54;;;;;;;0.13;0.13;;;11.80;99.90;;;;;;5056790;28;20212;-73
2021/12/31 09:22:20;;;;;;;0.13;0.13;;;11.80;99.90;;;;;;5058653;28;20180;-73
2021/12/31 09:24:48;;;;;;;0.57;0.57;;;11.90;99.90;;;;;;5052023;28;20250;-73
2021/12/31 09:27:14;;;;;;;3.20;1.50;;;11.90;99.90;;;;;;5052395;28;20185;-74
2021/12/31 09:29:39;;;;;;;0.20;0.20;;;11.90;99.90;;;;;;5053061;28;20184;-73
2021/12/31 09:32:06;;;;;;;0.43;0.43;;;12.00;99.90;;;;;;5050648;28;20179;-72
2021/12/31 09:34:31;;;;;;;1.73;1.27;;;12.00;99.90;;;;;;5048825;28;20198;-73
2021/12/31 09:36:57;;;;;;;0.00;0.00;;;12.00;99.90;;;;;;5052797;28;20177;-72
2021/12/31 09:39:22;;;;;;;0.10;0.10;;;12.10;99.90;;;;;;5051805;28;20184;-73
2021/12/31 09:41:48;;;;;;;0.93;0.87;;;12.10;99.90;;;;;;5052593;28;20226;-73
2021/12/31 09:44:15;;;;;;;0.07;0.07;;;12.20;99.90;;;;;;5053739;28;20193;-73
2021/12/31 09:46:41;;;;;;;0.20;0.20;;;12.20;99.90;;;;;;5041357;28;20177;-73
2021/12/31 09:49:07;;;;;;;1.70;0.93;;;12.20;99.90;;;;;;5054171;28;20184;-73
2021/12/31 09:51:34;;;;;;;1.00;0.77;;;12.20;99.90;;;;;;5056088;28;20537;-73
2021/12/31 09:54:00;;;;;;;0.10;0.10;;;12.30;99.90;;;;;;5061414;28;20217;-73
2021/12/31 09:56:27;;;;;;;12.70;1.80;;;12.30;99.90;;;;;;5050844;28;20644;-73
2021/12/31 09:58:53;;;;;;;0.37;0.30;;;12.30;99.90;;;;;;5058803;28;20227;-73
2021/12/31 10:01:18;;;;;;;0.20;0.20;;;12.30;99.90;;;;;;5061610;28;20218;-73
2021/12/31 10:03:56;;;;;;;0.10;0.10;;;12.40;99.90;;;;;;5059745;28;20200;-74
2021/12/31 10:06:22;;;;;;;0.30;0.30;;;12.40;99.90;;;;;;5054413;28;20174;-74
2021/12/31 10:08:48;;;;;;;1.40;1.30;;;12.50;99.90;;;;;;5064970;28;20161;-73
2021/12/31 10:11:13;;;;;;;1.27;1.07;;;12.50;99.90;;;;;;5052586;28;20688;-74
2021/12/31 10:13:49;;;;;;;0.23;0.23;;;12.50;99.90;;;;;;5064727;28;20187;-73
2021/12/31 10:16:33;;;;;;;0.30;0.30;;;12.60;99.90;;;;;;5056817;28;20236;-74
2021/12/31 10:19:13;;;;;;;0.20;0.20;;;12.70;99.90;;;;;;5054921;28;20188;-74
2021/12/31 10:21:41;;;;;;;0.20;0.20;;;12.80;99.90;;;;;;5055270;28;20272;-73
2021/12/31 10:24:33;;;;;;;0.43;0.33;;;12.90;99.90;;;;;;5057404;28;20200;-73
2021/12/31 10:27:19;;;;;;;0.00;0.00;;;13.10;99.90;;;;;;5044366;28;20320;-74
2021/12/31 10:29:51;;;;;;;0.30;0.30;;;13.20;99.90;;;;;;5058215;28;20256;-73
2021/12/31 10:32:18;;;;;;;1.77;0.40;;;13.30;99.90;;;;;;5071137;28;20173;-74
2021/12/31 10:34:43;;;;;;;0.23;0.23;;;13.30;99.90;;;;;;5050495;28;20187;-73
2021/12/31 10:37:19;;;;;;;0.00;0.00;;;13.40;99.90;;;;;;5058946;28;20169;-73
2021/12/31 10:39:53;;;;;;;0.43;0.43;;;13.40;99.90;;;;;;5060416;28;20179;-74
2021/12/31 10:42:18;;;;;;;0.10;0.10;;;13.50;99.90;;;;;;5054074;28;20173;-74
2021/12/31 10:44:45;;;;;;;0.30;0.30;;;13.70;99.90;;;;;;5059464;28;20698;-74
2021/12/31 10:47:18;;;;;;;0.20;0.20;;;13.90;99.90;;;;;;5054810;28;20311;-74
2021/12/31 10:50:06;;;;;;;0.60;0.60;;;14.10;99.90;;;;;;5048992;28;20250;-74
2021/12/31 10:52:39;;;;;;;0.17;0.17;;;14.20;99.90;;;;;;5051578;28;20174;-74
2021/12/31 10:55:25;;;;;;;0.20;0.20;;;14.30;99.90;;;;;;5074168;22;20681;-72
2021/12/31 10:57:53;;;;;;;0.47;0.47;;;14.40;99.90;;;;;;5057479;28;20184;-72
2021/12/31 11:00:21;;;;;;;0.10;0.10;;;14.40;99.90;;;;;;5054960;28;20241;-72
2021/12/31 11:02:47;;;;;;;0.40;0.40;;;14.50;99.90;;;;;;5055653;28;20638;-72
2021/12/31 11:05:15;;;;;;;0.13;0.13;;;14.40;99.90;;;;;;5050810;28;20714;-72
2021/12/31 11:07:41;;;;;;;0.73;0.73;;;14.40;99.90;;;;;;5061881;28;20648;-72
2021/12/31 11:10:08;;;;;;;0.13;0.13;;;14.40;99.90;;;;;;5045833;28;20198;-72
2021/12/31 11:12:34;;;;;;;0.20;0.20;;;14.40;99.90;;;;;;5054239;28;20173;-73
2021/12/31 11:15:01;;;;;;;0.00;0.00;;;14.30;99.90;;;;;;5049756;28;20198;-72
2021/12/31 11:17:27;;;;;;;0.10;0.10;;;14.30;99.90;;;;;;5048239;28;20174;-72
2021/12/31 11:19:53;;;;;;;0.17;0.17;;;14.20;99.90;;;;;;5051421;28;20177;-71
2021/12/31 11:22:25;;;;;;;1.23;0.53;;;14.20;99.90;;;;;;5053411;28;20601;-72
2021/12/31 11:24:50;;;;;;;0.17;0.17;;;14.10;99.90;;;;;;5054675;28;20668;-72
2021/12/31 11:27:42;;;;;;;0.30;0.30;;;14.00;99.90;;;;;;5053185;28;20181;-75
2021/12/31 11:30:28;;;;;;;0.10;0.10;;;13.90;99.90;;;;;;5053279;28;20629;-72
2021/12/31 11:33:20;;;;;;;1.10;0.77;;;13.90;99.90;;;;;;5044624;28;20178;-75
2021/12/31 11:36:09;;;;;;;0.17;0.17;;;13.90;99.90;;;;;;5032317;28;20251;-70
2021/12/31 11:38:39;;;;;;;0.07;0.07;;;13.90;99.90;;;;;;5032690;28;20649;-72
2021/12/31 11:41:09;;;;;;;0.30;0.30;;;13.90;99.90;;;;;;5032716;28;20178;-72
2021/12/31 11:43:38;;;;;;;5.57;1.80;;;14.00;99.90;;;;;;5033073;28;20208;-72
2021/12/31 11:46:10;;;;;;;0.10;0.10;;;14.00;99.90;;;;;;5045009;28;20222;-72
2021/12/31 11:48:48;;;;;;;0.50;0.47;;;14.10;99.90;;;;;;5035508;28;20182;-74
2021/12/31 11:51:22;;;;;;;0.10;0.10;;;14.10;99.90;;;;;;5043565;28;20209;-72
2021/12/31 11:53:59;;;;;;;0.53;0.50;;;14.20;99.90;;;;;;5033753;28;20192;-72
2021/12/31 11:59:09;;;;;;;0.30;0.30;;;14.30;99.90;;;;;;5034294;28;20174;-72
2021/12/31 12:01:38;;;;;;;2.57;0.33;;;14.40;99.90;;;;;;5033366;28;20202;-72
2021/12/31 12:04:22;;;;;;;0.20;0.20;;;14.40;99.90;;;;;;5039052;28;20191;-72
2021/12/31 12:06:57;;;;;;;0.10;0.10;;;14.50;99.90;;;;;;5047291;28;20203;-72
2021/12/31 12:09:43;;;;;;;0.10;0.10;;;14.40;99.90;;;;;;5056620;28;20192;-72
2021/12/31 12:12:13;;;;;;;0.17;0.17;;;14.50;99.90;;;;;;5050776;28;20661;-74
2021/12/31 12:14:47;;;;;;;1.80;1.07;;;14.50;99.90;;;;;;5032653;28;20206;-72
2021/12/31 12:17:31;;;;;;;0.20;0.20;;;14.50;99.90;;;;;;5033502;28;20186;-72
2021/12/31 12:20:02;;;;;;;0.33;0.33;;;14.70;99.90;;;;;;5033745;28;20257;-72
2021/12/31 12:22:53;;;;;;;0.10;0.10;;;14.70;99.90;;;;;;5033060;28;20174;-71
2021/12/31 12:25:31;;;;;;;0.20;0.20;;;14.80;99.90;;;;;;5033104;28;20202;-71
2021/12/31 12:28:06;;;;;;;0.00;0.00;;;14.70;99.90;;;;;;5032213;28;20232;-72
2021/12/31 12:30:34;;;;;;;0.10;0.10;;;14.90;99.90;;;;;;5031511;28;20205;-72
2021/12/31 12:35:45;;;;;;;0.63;0.40;;;15.00;99.90;;;;;;5032617;28;20201;-72
2021/12/31 12:38:16;;;;;;;0.10;0.10;;;14.90;99.90;;;;;;5032890;28;20179;-72
2021/12/31 12:40:46;;;;;;;0.20;0.20;;;15.00;99.90;;;;;;5031441;28;20659;-72
2021/12/31 12:43:15;;;;;;;0.60;0.57;;;15.00;99.90;;;;;;5031518;28;20188;-72
2021/12/31 12:45:42;;;;;;;0.10;0.10;;;15.00;99.90;;;;;;5039628;28;20688;-72
2021/12/31 12:48:08;;;;;;;0.00;0.00;;;15.10;99.90;;;;;;5037816;28;20190;-72
2021/12/31 12:50:35;;;;;;;0.10;0.10;;;15.10;99.90;;;;;;5031197;28;20203;-72
2021/12/31 12:53:01;;;;;;;0.10;0.10;;;15.50;99.90;;;;;;5042080;28;20182;-72
2021/12/31 12:55:28;;;;;;;0.20;0.20;;;16.20;99.90;;;;;;5030984;28;20752;-72
2021/12/31 12:57:56;;;;;;;0.10;0.10;;;17.30;99.90;;;;;;5030931;28;20731;-72